Flight Track Log - Related Links

Times and Time Zones

All times are in EDT time to prevent confusion due to time zone crossing. See the UAL481 flight status page for this flight to view local times or setup timezone preferences in your user account.

Time Position Orientation Groundspeed Altitude Reporting Facility
EDT Latitude Longitude Course Direction KTS MPH feet Rate Location/Type
Fri 06:41:58 PM 42.7672 -73.8061 324° Northwest 159 183 1,200  Level Boston Center
Fri 06:42:34 PM 42.7944 -73.8094 355° North 168 193 2,200 2,272 Climbing Boston Center
Fri 06:43:41 PM 42.8564 -73.8619 328° Northwest 243 280 5,100 2,733 Climbing Boston Center
Fri 06:44:00 PM 42.8029 -74.1659 284° West  Level FlightAware Approximate
Fri 06:44:15 PM 42.8872 -73.8881 328° Northwest 272 313 6,800  Level Boston Center
Fri 06:45:00 PM 42.8254 -74.2897 284° West  Level FlightAware Approximate
Fri 06:45:15 PM 42.9364 -73.9461 319° Northwest 272 313 10,000  Level Boston Center
Fri 06:46:00 PM 42.8468 -74.4140 283° West  Level FlightAware Approximate
Fri 06:46:15 PM 42.9556 -74.0797 281° West 294 338 11,900  Level Boston Center
Fri 06:47:00 PM 42.8698 -74.5365 324° Northwest  Level FlightAware Approximate
Fri 06:47:15 PM 42.9661 -74.2022 277° West 348 400 14,200  Level Boston Center
Fri 06:48:15 PM 42.9844 -74.3531 279° West 375 432 17,300 2,550 Climbing Boston Center
Fri 06:49:15 PM 42.9969 -74.4842 277° West 375 432 19,300 2,000 Climbing Boston Center
Fri 06:50:15 PM 43.0128 -74.6322 278° West 387 445 21,300 2,000 Climbing Boston Center
Fri 06:51:15 PM 43.0372 -74.7753 283° West 387 445 23,300 1,750 Climbing Boston Center
Fri 06:52:15 PM 43.0781 -74.9161 292° West 393 452 24,800 1,600 Climbing Boston Center
Fri 06:53:15 PM 43.1142 -75.0625 289° West 403 464 26,500 1,750 Climbing Boston Center
Fri 06:54:15 PM 43.1500 -75.2292 286° West 409 471 28,300 1,500 Climbing Boston Center
Fri 06:55:15 PM 43.1519 -75.3972 271° West 428 493 29,500 1,050 Climbing Boston Center
Fri 06:56:15 PM 43.1536 -75.5681 271° West 440 506 30,400 850 Climbing Boston Center
Fri 06:57:15 PM 43.1528 -75.7475 270° West 453 521 31,200 1,157 Climbing Boston Center
Fri 06:59:32 PM 43.1500 -76.1167 270° West 450 518 34,200 1,218 Climbing Toronto Center
Fri 07:00:32 PM 43.1500 -76.2667 270° West 460 529 35,200 824 Climbing Toronto Center
Fri 07:01:43 PM 43.1531 -76.4992 271° West 460 529 36,000 366 Climbing Cleveland Center
Fri 07:02:43 PM 43.1525 -76.6614 270° West 455 524 36,000  Level Cleveland Center
Fri 07:03:43 PM 43.1522 -76.8464 270° West 445 512 36,000  Level Cleveland Center
Fri 07:04:43 PM 43.1492 -77.0147 269° West 445 512 36,000  Level Cleveland Center
Fri 07:05:43 PM 43.1481 -77.1825 270° West 445 512 36,000  Level Cleveland Center
Fri 07:06:43 PM 43.1467 -77.3506 269° West 445 512 36,000  Level Cleveland Center
Fri 07:07:43 PM 43.1450 -77.5242 269° West 445 512 36,000  Level Cleveland Center
Fri 07:08:43 PM 43.1411 -77.6925 268° West 450 518 36,000  Level Cleveland Center
Fri 07:09:43 PM 43.1389 -77.8633 269° West 450 518 36,000  Level Cleveland Center
Fri 07:10:43 PM 43.1367 -78.0369 269° West 456 525 36,000  Level Cleveland Center
Fri 07:11:43 PM 43.1342 -78.2106 269° West 461 531 36,000  Level Cleveland Center
Fri 07:12:43 PM 43.1311 -78.3814 269° West 461 531 36,000  Level Cleveland Center
Fri 07:13:43 PM 43.1261 -78.5550 268° West 461 531 36,000  Level Cleveland Center
Fri 07:14:43 PM 43.1225 -78.7231 268° West 456 525 36,000  Level Cleveland Center
Fri 07:15:43 PM 43.1189 -78.8967 268° West 456 525 36,000  Level Cleveland Center
Fri 07:16:32 PM 43.1000 -79.0167 258° West 450 518 36,000  Level Toronto Center
Fri 07:17:32 PM 43.1000 -79.1833 270° West 450 518 36,000  Level Toronto Center
Fri 07:18:32 PM 43.1000 -79.3333 270° West 440 506 36,000  Level Toronto Center
Fri 07:19:32 PM 43.0833 -79.5167 263° West 430 495 36,000  Level Toronto Center
Fri 07:20:32 PM 43.0833 -79.6500 270° West 430 495 36,000  Level Toronto Center
Fri 07:21:32 PM 43.0833 -79.8333 270° West 430 495 36,000  Level Toronto Center
Fri 07:22:32 PM 43.0667 -80.0000 262° West 430 495 36,000  Level Toronto Center
Fri 07:23:32 PM 43.0667 -80.1500 270° West 420 483 36,000  Level Toronto Center
Fri 07:24:32 PM 43.0667 -80.3167 270° West 420 483 36,000  Level Toronto Center
Fri 07:25:32 PM 43.0667 -80.4833 270° West 420 483 36,000  Level Toronto Center
Fri 07:26:32 PM 43.0500 -80.6333 261° West 420 483 36,000  Level Toronto Center
Fri 07:27:32 PM 43.0500 -80.8000 270° West 420 483 36,000  Level Toronto Center
Fri 07:28:32 PM 43.0333 -80.9500 261° West 420 483 36,000  Level Toronto Center
Fri 07:29:32 PM 43.0167 -81.1167 262° West 420 483 36,000  Level Toronto Center
Fri 07:30:32 PM 43.0167 -81.2667 270° West 410 472 36,000  Level Toronto Center
Fri 07:31:32 PM 43.0167 -81.4333 270° West 410 472 36,000  Level Toronto Center
Fri 07:32:32 PM 43.0167 -81.5667 270° West 410 472 36,000  Level Toronto Center
Fri 07:33:32 PM 43.0167 -81.7500 270° West 410 472 36,000  Level Toronto Center
Fri 07:34:32 PM 43.0167 -81.8833 270° West 410 472 36,000  Level Toronto Center
Fri 07:35:32 PM 43.0000 -82.0500 262° West 410 472 36,000  Level Toronto Center
Fri 07:36:32 PM 43.0000 -82.2167 270° West 410 472 36,000  Level Toronto Center
Fri 07:37:32 PM 43.0000 -82.3500 270° West 410 472 36,000  Level Toronto Center
Fri 07:38:32 PM 43.0000 -82.5333 270° West 410 472 36,000  Level Toronto Center
Fri 07:39:32 PM 42.9833 -82.6667 260° West 410 472 36,000  Level Toronto Center
Fri 07:39:55 PM 43.0025 -82.7464 288° West 417 480 36,000 -289 Level Cleveland Center
Fri 07:40:55 PM 42.9953 -82.9022 266° West 417 480 35,600 -800 Descending Cleveland Center
Fri 07:41:55 PM 42.9903 -83.0525 267° West 417 480 34,400 -900 Descending Cleveland Center
Fri 07:42:55 PM 42.9867 -83.2086 268° West 411 473 33,800 -900 Descending Cleveland Center
Fri 07:43:55 PM 42.9789 -83.3672 266° West 417 480 32,600 -688 Descending Cleveland Center
Fri 07:45:32 PM 42.9667 -83.6167 266° West 430 495 32,000 -300 Descending Toronto Center
Fri 07:45:55 PM 42.9686 -83.6872 272° West 422 486 32,000  Level Cleveland Center
Fri 07:46:56 PM 42.9558 -83.8483 264° West 422 486 32,000  Level Cleveland Center
Fri 07:47:55 PM 42.9439 -83.9756 263° West 422 486 32,000  Level Cleveland Center
Fri 07:49:32 PM 42.9175 -84.2544 263° West 415 478 32,000  Level Chicago Center
Fri 07:50:34 PM 42.9019 -84.4106 262° West 414 476 32,000  Level Chicago Center
Fri 07:51:37 PM 42.8861 -84.5639 262° West 412 474 32,000  Level Chicago Center
Fri 07:52:39 PM 42.8700 -84.7194 262° West 414 476 32,000  Level Chicago Center
Fri 07:53:41 PM 42.8536 -84.8764 262° West 419 482 32,000  Level Chicago Center
Fri 07:54:43 PM 42.8378 -85.0331 262° West 419 482 32,000  Level Chicago Center
Fri 07:55:45 PM 42.8169 -85.2208 261° West 419 482 32,000 -97 Level Chicago Center
Fri 07:56:47 PM 42.8006 -85.3775 262° West 419 482 31,800 -1,113 Descending Chicago Center
Fri 07:57:49 PM 42.7797 -85.5364 260° West 424 488 29,700 -2,226 Descending Chicago Center
Fri 07:58:51 PM 42.7508 -85.6956 256° West 430 495 27,200 -2,274 Descending Chicago Center
Fri 07:59:53 PM 42.7225 -85.8511 256° West 423 487 25,000 -2,177 Descending Chicago Center
Fri 08:00:55 PM 42.6950 -86.0056 256° West 419 482 22,700 -2,177 Descending Chicago Center
Fri 08:01:57 PM 42.6661 -86.1603 256° West 419 482 20,500 -1,306 Descending Chicago Center
Fri 08:02:59 PM 42.6386 -86.3047 256° West 401 461 20,000 -242 Descending Chicago Center
Fri 08:04:01 PM 42.6069 -86.4775 256° West 396 456 20,000 -742 Level Chicago Center
Fri 08:06:05 PM 42.5497 -86.7767 256° West 395 455 17,700 -1,323 Descending Chicago Center
Fri 08:07:07 PM 42.5144 -86.8992 249° West 380 437 15,900 -1,839 Descending Chicago Center
Fri 08:08:09 PM 42.4794 -87.0289 250° West 372 428 13,900 -1,935 Descending Chicago Center
Fri 08:09:11 PM 42.4428 -87.1528 248° West 359 413 11,900 -1,839 Descending Chicago Center
Fri 08:10:13 PM 42.4092 -87.2756 250° West 351 404 10,100 -919 Descending Chicago Center
Fri 08:11:15 PM 42.3736 -87.4100 250° West 307 353 10,000 -48 Descending Chicago Center
Fri 08:12:17 PM 42.3458 -87.5067 249° West 283 326 10,000 -484 Level Chicago Center
Fri 08:13:19 PM 42.2956 -87.5792 227° Southwest 282 325 9,000 -484 Descending Chicago Center
Fri 08:14:21 PM 42.2344 -87.6431 218° Southwest 278 320 9,000  Level Chicago Center
Fri 08:15:23 PM 42.1747 -87.7056 218° Southwest 276 318 9,000 -435 Level Chicago Center
Fri 08:16:25 PM 42.1133 -87.7731 219° Southwest 247 284 8,100 -629 Descending Chicago Center
Fri 08:17:27 PM 42.0914 -87.8458 248° West 244 281 7,700 -439 Descending Chicago Center
Fri 08:17:47 PM 42.1000 -87.8833 287° West 214 246 7,500 -568 Descending Chicago TRACON
Fri 08:18:41 PM 42.0833 -87.9333 246° West 197 227 7,000 -263 Descending Chicago TRACON
Fri 08:19:41 PM 42.0833 -88.0167 270° West 196 226 7,000 -381 Level Chicago TRACON
Fri 08:20:47 PM 42.0667 -88.0833 251° West 188 216 6,200 -947 Descending Chicago TRACON
Fri 08:21:35 PM 42.0678 -88.1464 271° West 193 222 5,200 -1,145 Descending Chicago Center
Fri 08:22:37 PM 42.0194 -88.1644 196° South 194 223 4,100 -919 Descending Chicago Center
Fri 08:23:39 PM 41.9781 -88.1364 153° Southeast 186 214 3,300 -677 Descending Chicago Center
Fri 08:24:41 PM 41.9678 -88.0697 102° East 187 215 2,700 -581 Descending Chicago Center

Login

Don't have an account? Register now (free) for customized features, flight alerts, and more!